sensor_id;sensor_type;location;lat;lon;timestamp;P1;durP1;ratioP1;P2;durP2;ratioP2
8574;SDS011;4325;42.520;27.448;2022-10-28T00:01:35;26.00;;;19.60;;
8574;SDS011;4325;42.520;27.448;2022-10-28T00:04:02;29.53;;;22.43;;
8574;SDS011;4325;42.520;27.448;2022-10-28T00:06:31;25.63;;;19.70;;
8574;SDS011;4325;42.520;27.448;2022-10-28T00:08:59;24.73;;;19.47;;
8574;SDS011;4325;42.520;27.448;2022-10-28T00:11:27;23.13;;;17.67;;
8574;SDS011;4325;42.520;27.448;2022-10-28T00:13:56;24.63;;;18.80;;
8574;SDS011;4325;42.520;27.448;2022-10-28T00:16:25;29.03;;;21.83;;
8574;SDS011;4325;42.520;27.448;2022-10-28T00:18:54;36.57;;;30.30;;
8574;SDS011;4325;42.520;27.448;2022-10-28T00:21:23;28.63;;;23.63;;
8574;SDS011;4325;42.520;27.448;2022-10-28T00:23:53;28.43;;;21.07;;
8574;SDS011;4325;42.520;27.448;2022-10-28T00:26:21;23.80;;;19.53;;
8574;SDS011;4325;42.520;27.448;2022-10-28T00:28:49;27.67;;;20.93;;
8574;SDS011;4325;42.520;27.448;2022-10-28T00:31:18;26.37;;;21.67;;
8574;SDS011;4325;42.520;27.448;2022-10-28T00:33:45;25.97;;;20.97;;
8574;SDS011;4325;42.520;27.448;2022-10-28T00:36:13;31.97;;;21.30;;
8574;SDS011;4325;42.520;27.448;2022-10-28T00:38:43;31.03;;;20.93;;
8574;SDS011;4325;42.520;27.448;2022-10-28T00:41:14;23.70;;;17.87;;
8574;SDS011;4325;42.520;27.448;2022-10-28T00:43:43;24.50;;;17.07;;
8574;SDS011;4325;42.520;27.448;2022-10-28T00:46:15;20.93;;;17.70;;
8574;SDS011;4325;42.520;27.448;2022-10-28T00:48:47;18.67;;;16.27;;
8574;SDS011;4325;42.520;27.448;2022-10-28T00:51:17;26.30;;;17.63;;
8574;SDS011;4325;42.520;27.448;2022-10-28T00:53:46;18.10;;;15.63;;
8574;SDS011;4325;42.520;27.448;2022-10-28T00:56:17;19.40;;;16.60;;
8574;SDS011;4325;42.520;27.448;2022-10-28T00:58:46;19.47;;;15.70;;
8574;SDS011;4325;42.520;27.448;2022-10-28T01:01:15;18.87;;;16.00;;
8574;SDS011;4325;42.520;27.448;2022-10-28T01:03:42;18.93;;;15.60;;
8574;SDS011;4325;42.520;27.448;2022-10-28T01:06:09;18.13;;;15.83;;
8574;SDS011;4325;42.520;27.448;2022-10-28T01:08:36;21.33;;;16.60;;
8574;SDS011;4325;42.520;27.448;2022-10-28T01:11:09;22.03;;;16.77;;
8574;SDS011;4325;42.520;27.448;2022-10-28T01:14:04;22.77;;;16.80;;
8574;SDS011;4325;42.520;27.448;2022-10-28T01:16:44;20.83;;;16.67;;
8574;SDS011;4325;42.520;27.448;2022-10-28T01:19:36;22.13;;;16.17;;
8574;SDS011;4325;42.520;27.448;2022-10-28T01:22:32;22.37;;;15.23;;
8574;SDS011;4325;42.520;27.448;2022-10-28T01:28:08;21.00;;;16.67;;
8574;SDS011;4325;42.520;27.448;2022-10-28T01:31:03;18.17;;;15.13;;
8574;SDS011;4325;42.520;27.448;2022-10-28T01:33:49;19.20;;;15.17;;
8574;SDS011;4325;42.520;27.448;2022-10-28T01:36:24;18.37;;;14.33;;
8574;SDS011;4325;42.520;27.448;2022-10-28T01:38:59;17.70;;;14.30;;
8574;SDS011;4325;42.520;27.448;2022-10-28T01:41:34;17.50;;;14.20;;
8574;SDS011;4325;42.520;27.448;2022-10-28T01:44:08;15.57;;;13.50;;
8574;SDS011;4325;42.520;27.448;2022-10-28T01:46:48;21.63;;;15.27;;
8574;SDS011;4325;42.520;27.448;2022-10-28T01:49:23;17.60;;;14.60;;
8574;SDS011;4325;42.520;27.448;2022-10-28T01:51:54;18.70;;;16.37;;
8574;SDS011;4325;42.520;27.448;2022-10-28T01:54:26;20.13;;;15.07;;
8574;SDS011;4325;42.520;27.448;2022-10-28T01:56:56;17.23;;;15.00;;
8574;SDS011;4325;42.520;27.448;2022-10-28T01:59:26;21.03;;;14.80;;
8574;SDS011;4325;42.520;27.448;2022-10-28T02:01:56;17.47;;;13.83;;
8574;SDS011;4325;42.520;27.448;2022-10-28T02:04:23;14.63;;;13.13;;
8574;SDS011;4325;42.520;27.448;2022-10-28T02:06:52;18.23;;;15.03;;
8574;SDS011;4325;42.520;27.448;2022-10-28T02:09:27;19.20;;;14.40;;
8574;SDS011;4325;42.520;27.448;2022-10-28T02:12:15;17.77;;;14.00;;
8574;SDS011;4325;42.520;27.448;2022-10-28T02:14:57;21.33;;;14.37;;
8574;SDS011;4325;42.520;27.448;2022-10-28T02:17:46;18.03;;;14.30;;
8574;SDS011;4325;42.520;27.448;2022-10-28T02:20:22;19.30;;;14.93;;
8574;SDS011;4325;42.520;27.448;2022-10-28T02:23:00;18.43;;;15.20;;
8574;SDS011;4325;42.520;27.448;2022-10-28T02:25:38;18.23;;;14.40;;
8574;SDS011;4325;42.520;27.448;2022-10-28T02:28:11;23.70;;;19.17;;
8574;SDS011;4325;42.520;27.448;2022-10-28T02:30:43;21.53;;;16.87;;
8574;SDS011;4325;42.520;27.448;2022-10-28T02:33:15;30.07;;;24.87;;
8574;SDS011;4325;42.520;27.448;2022-10-28T02:35:46;23.83;;;20.03;;
8574;SDS011;4325;42.520;27.448;2022-10-28T02:38:17;23.43;;;19.97;;
8574;SDS011;4325;42.520;27.448;2022-10-28T02:40:49;21.80;;;18.77;;
8574;SDS011;4325;42.520;27.448;2022-10-28T02:43:19;25.03;;;18.63;;
8574;SDS011;4325;42.520;27.448;2022-10-28T02:45:51;24.40;;;19.07;;
8574;SDS011;4325;42.520;27.448;2022-10-28T02:48:24;29.53;;;24.03;;
8574;SDS011;4325;42.520;27.448;2022-10-28T02:50:56;26.93;;;22.57;;
8574;SDS011;4325;42.520;27.448;2022-10-28T02:53:28;25.10;;;20.00;;
8574;SDS011;4325;42.520;27.448;2022-10-28T02:55:58;22.93;;;19.30;;
8574;SDS011;4325;42.520;27.448;2022-10-28T02:58:27;26.47;;;19.47;;
8574;SDS011;4325;42.520;27.448;2022-10-28T03:00:54;22.77;;;16.97;;
8574;SDS011;4325;42.520;27.448;2022-10-28T03:03:21;22.20;;;16.37;;
8574;SDS011;4325;42.520;27.448;2022-10-28T03:05:49;19.47;;;16.27;;
8574;SDS011;4325;42.520;27.448;2022-10-28T03:08:16;23.97;;;17.67;;
8574;SDS011;4325;42.520;27.448;2022-10-28T03:10:43;23.70;;;16.57;;
8574;SDS011;4325;42.520;27.448;2022-10-28T03:13:10;21.50;;;14.57;;
8574;SDS011;4325;42.520;27.448;2022-10-28T03:15:37;19.70;;;13.80;;
8574;SDS011;4325;42.520;27.448;2022-10-28T03:18:03;16.07;;;12.97;;
8574;SDS011;4325;42.520;27.448;2022-10-28T03:20:30;16.03;;;12.83;;
8574;SDS011;4325;42.520;27.448;2022-10-28T03:22:58;16.23;;;12.07;;
8574;SDS011;4325;42.520;27.448;2022-10-28T03:25:25;14.47;;;11.93;;
8574;SDS011;4325;42.520;27.448;2022-10-28T03:27:52;13.70;;;11.60;;
8574;SDS011;4325;42.520;27.448;2022-10-28T03:30:19;18.50;;;12.07;;
8574;SDS011;4325;42.520;27.448;2022-10-28T03:32:46;14.00;;;11.70;;
8574;SDS011;4325;42.520;27.448;2022-10-28T03:35:13;14.77;;;11.97;;
8574;SDS011;4325;42.520;27.448;2022-10-28T03:37:40;17.13;;;13.07;;
8574;SDS011;4325;42.520;27.448;2022-10-28T03:40:09;17.43;;;12.50;;
8574;SDS011;4325;42.520;27.448;2022-10-28T03:42:38;17.47;;;12.80;;
8574;SDS011;4325;42.520;27.448;2022-10-28T03:45:06;16.67;;;12.70;;
8574;SDS011;4325;42.520;27.448;2022-10-28T03:47:33;15.97;;;13.10;;
8574;SDS011;4325;42.520;27.448;2022-10-28T03:50:00;17.23;;;13.47;;
8574;SDS011;4325;42.520;27.448;2022-10-28T03:52:27;16.80;;;12.70;;
8574;SDS011;4325;42.520;27.448;2022-10-28T03:54:54;19.03;;;12.93;;
8574;SDS011;4325;42.520;27.448;2022-10-28T03:57:22;17.57;;;13.70;;
8574;SDS011;4325;42.520;27.448;2022-10-28T03:59:49;23.93;;;18.97;;
8574;SDS011;4325;42.520;27.448;2022-10-28T04:02:16;23.20;;;18.60;;
8574;SDS011;4325;42.520;27.448;2022-10-28T04:04:43;18.23;;;13.83;;
8574;SDS011;4325;42.520;27.448;2022-10-28T04:07:10;16.10;;;14.23;;
8574;SDS011;4325;42.520;27.448;2022-10-28T04:09:37;19.47;;;14.27;;
8574;SDS011;4325;42.520;27.448;2022-10-28T04:12:04;16.53;;;13.60;;
8574;SDS011;4325;42.520;27.448;2022-10-28T04:14:33;18.17;;;13.23;;
8574;SDS011;4325;42.520;27.448;2022-10-28T04:17:00;18.80;;;13.03;;
8574;SDS011;4325;42.520;27.448;2022-10-28T04:19:26;19.93;;;15.93;;
8574;SDS011;4325;42.520;27.448;2022-10-28T04:21:53;17.50;;;13.27;;
8574;SDS011;4325;42.520;27.448;2022-10-28T04:24:20;17.43;;;12.40;;
8574;SDS011;4325;42.520;27.448;2022-10-28T04:26:47;16.07;;;13.53;;
8574;SDS011;4325;42.520;27.448;2022-10-28T04:29:14;21.03;;;16.97;;
8574;SDS011;4325;42.520;27.448;2022-10-28T04:31:42;19.47;;;14.27;;
8574;SDS011;4325;42.520;27.448;2022-10-28T04:34:09;14.47;;;12.97;;
8574;SDS011;4325;42.520;27.448;2022-10-28T04:36:36;15.93;;;12.90;;
8574;SDS011;4325;42.520;27.448;2022-10-28T04:39:03;14.47;;;12.67;;
8574;SDS011;4325;42.520;27.448;2022-10-28T04:41:29;17.13;;;12.03;;
8574;SDS011;4325;42.520;27.448;2022-10-28T04:43:56;16.53;;;11.60;;
8574;SDS011;4325;42.520;27.448;2022-10-28T04:46:23;14.63;;;11.33;;
8574;SDS011;4325;42.520;27.448;2022-10-28T04:48:51;15.73;;;11.77;;
8574;SDS011;4325;42.520;27.448;2022-10-28T04:51:18;22.10;;;11.33;;
8574;SDS011;4325;42.520;27.448;2022-10-28T04:53:45;17.13;;;11.17;;
8574;SDS011;4325;42.520;27.448;2022-10-28T04:56:12;15.73;;;10.50;;
8574;SDS011;4325;42.520;27.448;2022-10-28T04:58:39;17.30;;;11.30;;
8574;SDS011;4325;42.520;27.448;2022-10-28T05:01:06;14.13;;;10.47;;
8574;SDS011;4325;42.520;27.448;2022-10-28T05:03:33;17.77;;;12.20;;
8574;SDS011;4325;42.520;27.448;2022-10-28T05:06:02;13.30;;;11.87;;
8574;SDS011;4325;42.520;27.448;2022-10-28T05:08:29;19.33;;;12.00;;
8574;SDS011;4325;42.520;27.448;2022-10-28T05:10:56;15.73;;;12.60;;
8574;SDS011;4325;42.520;27.448;2022-10-28T05:13:23;17.23;;;11.40;;
8574;SDS011;4325;42.520;27.448;2022-10-28T05:15:50;17.10;;;11.90;;
8574;SDS011;4325;42.520;27.448;2022-10-28T05:18:16;15.93;;;11.57;;
8574;SDS011;4325;42.520;27.448;2022-10-28T05:20:44;17.47;;;11.23;;
8574;SDS011;4325;42.520;27.448;2022-10-28T05:23:12;16.10;;;12.23;;
8574;SDS011;4325;42.520;27.448;2022-10-28T05:25:39;16.00;;;11.03;;
8574;SDS011;4325;42.520;27.448;2022-10-28T05:28:07;17.90;;;11.23;;
8574;SDS011;4325;42.520;27.448;2022-10-28T05:30:34;18.27;;;10.70;;
8574;SDS011;4325;42.520;27.448;2022-10-28T05:33:02;20.43;;;13.13;;
8574;SDS011;4325;42.520;27.448;2022-10-28T05:35:29;31.30;;;14.87;;
8574;SDS011;4325;42.520;27.448;2022-10-28T05:37:56;31.33;;;19.37;;
8574;SDS011;4325;42.520;27.448;2022-10-28T05:40:25;29.60;;;21.87;;
8574;SDS011;4325;42.520;27.448;2022-10-28T05:42:51;25.53;;;18.13;;
8574;SDS011;4325;42.520;27.448;2022-10-28T05:45:18;29.23;;;17.50;;
8574;SDS011;4325;42.520;27.448;2022-10-28T05:47:45;22.53;;;15.40;;
8574;SDS011;4325;42.520;27.448;2022-10-28T05:50:13;24.43;;;15.80;;
8574;SDS011;4325;42.520;27.448;2022-10-28T05:52:43;18.70;;;14.70;;
8574;SDS011;4325;42.520;27.448;2022-10-28T05:55:11;22.03;;;15.23;;
8574;SDS011;4325;42.520;27.448;2022-10-28T05:57:39;20.43;;;12.77;;
8574;SDS011;4325;42.520;27.448;2022-10-28T06:00:07;19.33;;;13.57;;
8574;SDS011;4325;42.520;27.448;2022-10-28T06:02:34;26.87;;;13.23;;
8574;SDS011;4325;42.520;27.448;2022-10-28T06:05:01;17.53;;;13.00;;
8574;SDS011;4325;42.520;27.448;2022-10-28T06:07:28;26.00;;;14.20;;
8574;SDS011;4325;42.520;27.448;2022-10-28T06:09:55;19.97;;;13.50;;
8574;SDS011;4325;42.520;27.448;2022-10-28T06:12:22;25.63;;;13.80;;
8574;SDS011;4325;42.520;27.448;2022-10-28T06:14:51;23.00;;;12.93;;
8574;SDS011;4325;42.520;27.448;2022-10-28T06:17:17;22.37;;;13.33;;
8574;SDS011;4325;42.520;27.448;2022-10-28T06:19:45;22.33;;;12.67;;
8574;SDS011;4325;42.520;27.448;2022-10-28T06:22:12;23.17;;;12.43;;
8574;SDS011;4325;42.520;27.448;2022-10-28T06:24:39;19.73;;;12.10;;
8574;SDS011;4325;42.520;27.448;2022-10-28T06:27:06;20.50;;;12.20;;
8574;SDS011;4325;42.520;27.448;2022-10-28T06:29:32;25.13;;;14.57;;
8574;SDS011;4325;42.520;27.448;2022-10-28T06:32:01;16.27;;;13.87;;
8574;SDS011;4325;42.520;27.448;2022-10-28T06:34:28;30.57;;;14.50;;
8574;SDS011;4325;42.520;27.448;2022-10-28T06:36:54;21.30;;;15.23;;
8574;SDS011;4325;42.520;27.448;2022-10-28T06:39:21;32.57;;;15.23;;
8574;SDS011;4325;42.520;27.448;2022-10-28T06:41:49;29.13;;;14.77;;
8574;SDS011;4325;42.520;27.448;2022-10-28T06:44:15;26.17;;;14.63;;
8574;SDS011;4325;42.520;27.448;2022-10-28T06:46:42;20.90;;;13.40;;
8574;SDS011;4325;42.520;27.448;2022-10-28T06:49:10;22.13;;;12.93;;
8574;SDS011;4325;42.520;27.448;2022-10-28T06:51:37;28.57;;;12.13;;
8574;SDS011;4325;42.520;27.448;2022-10-28T06:54:04;16.13;;;10.90;;
8574;SDS011;4325;42.520;27.448;2022-10-28T06:56:31;16.30;;;11.20;;
8574;SDS011;4325;42.520;27.448;2022-10-28T06:58:58;20.40;;;11.83;;
8574;SDS011;4325;42.520;27.448;2022-10-28T07:01:25;17.70;;;12.03;;
8574;SDS011;4325;42.520;27.448;2022-10-28T07:03:52;15.43;;;12.77;;
8574;SDS011;4325;42.520;27.448;2022-10-28T07:06:21;22.57;;;13.13;;
8574;SDS011;4325;42.520;27.448;2022-10-28T07:08:48;16.47;;;13.37;;
8574;SDS011;4325;42.520;27.448;2022-10-28T07:11:14;25.00;;;13.00;;
8574;SDS011;4325;42.520;27.448;2022-10-28T07:13:42;16.93;;;12.40;;
8574;SDS011;4325;42.520;27.448;2022-10-28T07:16:09;16.93;;;12.57;;
8574;SDS011;4325;42.520;27.448;2022-10-28T07:18:36;15.90;;;11.97;;
8574;SDS011;4325;42.520;27.448;2022-10-28T07:21:03;15.50;;;10.70;;
8574;SDS011;4325;42.520;27.448;2022-10-28T07:23:31;16.97;;;11.90;;
8574;SDS011;4325;42.520;27.448;2022-10-28T07:25:58;16.70;;;10.70;;
8574;SDS011;4325;42.520;27.448;2022-10-28T07:28:25;14.77;;;10.80;;
8574;SDS011;4325;42.520;27.448;2022-10-28T07:30:53;14.40;;;9.70;;
8574;SDS011;4325;42.520;27.448;2022-10-28T07:33:20;15.17;;;10.47;;
8574;SDS011;4325;42.520;27.448;2022-10-28T07:35:47;13.77;;;9.47;;
8574;SDS011;4325;42.520;27.448;2022-10-28T07:38:13;9.10;;;8.13;;
8574;SDS011;4325;42.520;27.448;2022-10-28T07:40:42;12.57;;;5.93;;
8574;SDS011;4325;42.520;27.448;2022-10-28T07:43:09;9.10;;;6.53;;
8574;SDS011;4325;42.520;27.448;2022-10-28T07:45:36;7.17;;;6.53;;
8574;SDS011;4325;42.520;27.448;2022-10-28T07:48:03;11.93;;;6.57;;
8574;SDS011;4325;42.520;27.448;2022-10-28T07:50:31;12.13;;;6.47;;
8574;SDS011;4325;42.520;27.448;2022-10-28T07:52:58;10.50;;;7.50;;
8574;SDS011;4325;42.520;27.448;2022-10-28T07:55:25;12.40;;;6.63;;
8574;SDS011;4325;42.520;27.448;2022-10-28T07:57:53;12.33;;;7.77;;
8574;SDS011;4325;42.520;27.448;2022-10-28T08:00:20;14.43;;;6.43;;
8574;SDS011;4325;42.520;27.448;2022-10-28T08:02:47;11.80;;;9.23;;
8574;SDS011;4325;42.520;27.448;2022-10-28T08:05:14;15.17;;;10.30;;
8574;SDS011;4325;42.520;27.448;2022-10-28T08:07:41;11.70;;;9.87;;
8574;SDS011;4325;42.520;27.448;2022-10-28T08:10:08;17.00;;;9.47;;
8574;SDS011;4325;42.520;27.448;2022-10-28T08:12:35;22.27;;;10.90;;
8574;SDS011;4325;42.520;27.448;2022-10-28T08:15:04;22.73;;;10.43;;
8574;SDS011;4325;42.520;27.448;2022-10-28T08:17:33;17.67;;;10.27;;
8574;SDS011;4325;42.520;27.448;2022-10-28T08:20:00;16.87;;;9.57;;
8574;SDS011;4325;42.520;27.448;2022-10-28T08:22:27;16.57;;;8.87;;
8574;SDS011;4325;42.520;27.448;2022-10-28T08:24:54;18.97;;;9.40;;
8574;SDS011;4325;42.520;27.448;2022-10-28T08:27:20;20.30;;;10.40;;
8574;SDS011;4325;42.520;27.448;2022-10-28T08:29:47;13.43;;;8.73;;
8574;SDS011;4325;42.520;27.448;2022-10-28T08:32:15;14.70;;;8.57;;
8574;SDS011;4325;42.520;27.448;2022-10-28T08:34:42;12.90;;;8.17;;
8574;SDS011;4325;42.520;27.448;2022-10-28T08:37:09;13.27;;;8.00;;
8574;SDS011;4325;42.520;27.448;2022-10-28T08:39:36;9.33;;;6.60;;
8574;SDS011;4325;42.520;27.448;2022-10-28T08:42:05;11.17;;;7.27;;
8574;SDS011;4325;42.520;27.448;2022-10-28T08:44:56;11.17;;;8.30;;
8574;SDS011;4325;42.520;27.448;2022-10-28T08:47:40;10.10;;;6.93;;
8574;SDS011;4325;42.520;27.448;2022-10-28T08:50:14;8.73;;;5.77;;
8574;SDS011;4325;42.520;27.448;2022-10-28T08:52:45;12.90;;;6.13;;
8574;SDS011;4325;42.520;27.448;2022-10-28T08:55:18;13.63;;;6.40;;
8574;SDS011;4325;42.520;27.448;2022-10-28T08:57:50;9.63;;;6.27;;
8574;SDS011;4325;42.520;27.448;2022-10-28T09:00:21;18.83;;;6.20;;
8574;SDS011;4325;42.520;27.448;2022-10-28T09:02:54;6.77;;;5.73;;
8574;SDS011;4325;42.520;27.448;2022-10-28T09:05:24;14.13;;;5.80;;
8574;SDS011;4325;42.520;27.448;2022-10-28T09:07:52;14.20;;;6.20;;
8574;SDS011;4325;42.520;27.448;2022-10-28T09:10:24;8.43;;;5.63;;
8574;SDS011;4325;42.520;27.448;2022-10-28T09:13:11;5.80;;;5.13;;
8574;SDS011;4325;42.520;27.448;2022-10-28T09:15:51;6.78;;;5.70;;
8574;SDS011;4325;42.520;27.448;2022-10-28T09:18:29;11.65;;;6.78;;
8574;SDS011;4325;42.520;27.448;2022-10-28T09:21:11;13.32;;;5.97;;
8574;SDS011;4325;42.520;27.448;2022-10-28T09:23:45;15.32;;;5.38;;
8574;SDS011;4325;42.520;27.448;2022-10-28T09:26:20;11.45;;;7.43;;
8574;SDS011;4325;42.520;27.448;2022-10-28T09:28:58;11.40;;;6.75;;
8574;SDS011;4325;42.520;27.448;2022-10-28T09:31:38;16.23;;;6.97;;
8574;SDS011;4325;42.520;27.448;2022-10-28T09:34:16;16.38;;;6.78;;
8574;SDS011;4325;42.520;27.448;2022-10-28T09:36:52;13.30;;;6.60;;
8574;SDS011;4325;42.520;27.448;2022-10-28T09:39:25;9.15;;;6.55;;
8574;SDS011;4325;42.520;27.448;2022-10-28T09:41:55;12.02;;;6.25;;
8574;SDS011;4325;42.520;27.448;2022-10-28T09:44:25;12.20;;;5.80;;
8574;SDS011;4325;42.520;27.448;2022-10-28T09:47:01;18.35;;;5.95;;
8574;SDS011;4325;42.520;27.448;2022-10-28T09:49:39;9.93;;;5.35;;
8574;SDS011;4325;42.520;27.448;2022-10-28T09:52:08;12.15;;;4.45;;
8574;SDS011;4325;42.520;27.448;2022-10-28T09:54:39;11.05;;;3.33;;
8574;SDS011;4325;42.520;27.448;2022-10-28T09:57:09;7.38;;;3.20;;
8574;SDS011;4325;42.520;27.448;2022-10-28T09:59:36;2.45;;;2.22;;
8574;SDS011;4325;42.520;27.448;2022-10-28T10:02:04;3.60;;;2.47;;
8574;SDS011;4325;42.520;27.448;2022-10-28T10:04:31;1.98;;;1.80;;
8574;SDS011;4325;42.520;27.448;2022-10-28T10:07:02;4.80;;;2.40;;
8574;SDS011;4325;42.520;27.448;2022-10-28T10:09:33;3.42;;;2.20;;
8574;SDS011;4325;42.520;27.448;2022-10-28T10:12:04;3.08;;;2.72;;
8574;SDS011;4325;42.520;27.448;2022-10-28T10:14:35;2.97;;;2.40;;
8574;SDS011;4325;42.520;27.448;2022-10-28T10:17:05;2.60;;;2.20;;
8574;SDS011;4325;42.520;27.448;2022-10-28T10:22:33;8.00;;;2.33;;
8574;SDS011;4325;42.520;27.448;2022-10-28T10:25:01;4.25;;;2.70;;
8574;SDS011;4325;42.520;27.448;2022-10-28T10:27:29;3.08;;;2.35;;
8574;SDS011;4325;42.520;27.448;2022-10-28T10:29:56;3.17;;;2.45;;
8574;SDS011;4325;42.520;27.448;2022-10-28T10:32:25;5.85;;;2.42;;
8574;SDS011;4325;42.520;27.448;2022-10-28T10:34:56;6.22;;;2.30;;
8574;SDS011;4325;42.520;27.448;2022-10-28T10:37:27;3.88;;;2.70;;
8574;SDS011;4325;42.520;27.448;2022-10-28T10:39:59;4.57;;;2.50;;
8574;SDS011;4325;42.520;27.448;2022-10-28T10:42:30;3.85;;;2.42;;
8574;SDS011;4325;42.520;27.448;2022-10-28T10:44:59;7.35;;;3.00;;
8574;SDS011;4325;42.520;27.448;2022-10-28T10:47:36;3.55;;;2.45;;
8574;SDS011;4325;42.520;27.448;2022-10-28T10:50:12;5.63;;;2.72;;
8574;SDS011;4325;42.520;27.448;2022-10-28T10:52:47;3.03;;;2.50;;
8574;SDS011;4325;42.520;27.448;2022-10-28T10:55:21;5.63;;;2.58;;
8574;SDS011;4325;42.520;27.448;2022-10-28T10:57:53;4.25;;;3.17;;
8574;SDS011;4325;42.520;27.448;2022-10-28T11:00:21;5.03;;;2.92;;
8574;SDS011;4325;42.520;27.448;2022-10-28T11:02:54;6.15;;;2.72;;
8574;SDS011;4325;42.520;27.448;2022-10-28T11:05:22;4.60;;;2.70;;
8574;SDS011;4325;42.520;27.448;2022-10-28T11:07:50;4.10;;;2.13;;
8574;SDS011;4325;42.520;27.448;2022-10-28T11:10:21;5.82;;;2.60;;
8574;SDS011;4325;42.520;27.448;2022-10-28T11:12:50;2.95;;;2.17;;
8574;SDS011;4325;42.520;27.448;2022-10-28T11:15:19;5.13;;;2.72;;
8574;SDS011;4325;42.520;27.448;2022-10-28T11:17:55;3.05;;;2.75;;
8574;SDS011;4325;42.520;27.448;2022-10-28T11:20:25;4.45;;;2.70;;
8574;SDS011;4325;42.520;27.448;2022-10-28T11:23:01;4.90;;;2.65;;
8574;SDS011;4325;42.520;27.448;2022-10-28T11:25:38;4.00;;;2.80;;
8574;SDS011;4325;42.520;27.448;2022-10-28T11:28:20;4.38;;;2.40;;
8574;SDS011;4325;42.520;27.448;2022-10-28T11:31:17;5.18;;;2.70;;
8574;SDS011;4325;42.520;27.448;2022-10-28T11:34:08;7.55;;;2.80;;
8574;SDS011;4325;42.520;27.448;2022-10-28T11:36:50;12.50;;;3.42;;
8574;SDS011;4325;42.520;27.448;2022-10-28T11:39:24;5.65;;;3.28;;
8574;SDS011;4325;42.520;27.448;2022-10-28T11:42:04;8.23;;;3.15;;
8574;SDS011;4325;42.520;27.448;2022-10-28T11:44:43;6.18;;;3.10;;
8574;SDS011;4325;42.520;27.448;2022-10-28T11:47:22;6.70;;;3.50;;
8574;SDS011;4325;42.520;27.448;2022-10-28T11:50:11;4.53;;;3.40;;
8574;SDS011;4325;42.520;27.448;2022-10-28T11:52:48;5.90;;;3.15;;
8574;SDS011;4325;42.520;27.448;2022-10-28T11:55:32;5.50;;;3.58;;
8574;SDS011;4325;42.520;27.448;2022-10-28T11:58:11;4.75;;;3.40;;
8574;SDS011;4325;42.520;27.448;2022-10-28T12:00:47;7.55;;;3.20;;
8574;SDS011;4325;42.520;27.448;2022-10-28T12:03:36;6.78;;;4.40;;
8574;SDS011;4325;42.520;27.448;2022-10-28T12:06:16;5.85;;;4.00;;
8574;SDS011;4325;42.520;27.448;2022-10-28T12:09:01;4.47;;;3.97;;
8574;SDS011;4325;42.520;27.448;2022-10-28T12:11:47;6.63;;;3.80;;
8574;SDS011;4325;42.520;27.448;2022-10-28T12:14:31;4.40;;;4.00;;
8574;SDS011;4325;42.520;27.448;2022-10-28T12:17:06;9.77;;;4.65;;
8574;SDS011;4325;42.520;27.448;2022-10-28T12:19:42;4.70;;;4.20;;
8574;SDS011;4325;42.520;27.448;2022-10-28T12:22:11;7.05;;;4.40;;
8574;SDS011;4325;42.520;27.448;2022-10-28T12:24:42;6.75;;;3.70;;
8574;SDS011;4325;42.520;27.448;2022-10-28T12:27:12;8.63;;;4.63;;
8574;SDS011;4325;42.520;27.448;2022-10-28T12:29:46;6.72;;;4.70;;
8574;SDS011;4325;42.520;27.448;2022-10-28T12:32:18;5.90;;;4.25;;
8574;SDS011;4325;42.520;27.448;2022-10-28T12:34:49;8.15;;;4.63;;
8574;SDS011;4325;42.520;27.448;2022-10-28T12:37:20;5.28;;;4.68;;
8574;SDS011;4325;42.520;27.448;2022-10-28T12:39:50;5.53;;;4.38;;
8574;SDS011;4325;42.520;27.448;2022-10-28T12:42:23;8.05;;;5.15;;
8574;SDS011;4325;42.520;27.448;2022-10-28T12:44:56;7.28;;;4.78;;
8574;SDS011;4325;42.520;27.448;2022-10-28T12:47:29;7.93;;;5.10;;
8574;SDS011;4325;42.520;27.448;2022-10-28T12:50:08;10.05;;;5.07;;
8574;SDS011;4325;42.520;27.448;2022-10-28T12:52:43;9.40;;;5.13;;
8574;SDS011;4325;42.520;27.448;2022-10-28T12:55:23;13.25;;;6.10;;
8574;SDS011;4325;42.520;27.448;2022-10-28T12:57:56;6.88;;;5.53;;
8574;SDS011;4325;42.520;27.448;2022-10-28T13:00:31;9.15;;;5.97;;
8574;SDS011;4325;42.520;27.448;2022-10-28T13:03:01;12.88;;;5.85;;
8574;SDS011;4325;42.520;27.448;2022-10-28T13:05:33;9.90;;;5.60;;
8574;SDS011;4325;42.520;27.448;2022-10-28T13:08:14;7.85;;;5.78;;
8574;SDS011;4325;42.520;27.448;2022-10-28T13:11:03;10.23;;;6.05;;
8574;SDS011;4325;42.520;27.448;2022-10-28T13:13:46;8.00;;;6.25;;
8574;SDS011;4325;42.520;27.448;2022-10-28T13:16:24;8.18;;;5.97;;
8574;SDS011;4325;42.520;27.448;2022-10-28T13:19:15;8.80;;;5.47;;
8574;SDS011;4325;42.520;27.448;2022-10-28T13:22:01;6.13;;;5.40;;
8574;SDS011;4325;42.520;27.448;2022-10-28T13:24:46;11.43;;;6.50;;
8574;SDS011;4325;42.520;27.448;2022-10-28T13:27:20;7.10;;;6.40;;
8574;SDS011;4325;42.520;27.448;2022-10-28T13:29:48;8.07;;;6.13;;
8574;SDS011;4325;42.520;27.448;2022-10-28T13:32:24;7.73;;;6.20;;
8574;SDS011;4325;42.520;27.448;2022-10-28T13:34:55;8.37;;;5.70;;
8574;SDS011;4325;42.520;27.448;2022-10-28T13:37:23;10.13;;;7.23;;
8574;SDS011;4325;42.520;27.448;2022-10-28T13:39:55;12.27;;;6.67;;
8574;SDS011;4325;42.520;27.448;2022-10-28T13:42:43;11.73;;;6.50;;
8574;SDS011;4325;42.520;27.448;2022-10-28T13:51:29;8.40;;;6.87;;
8574;SDS011;4325;42.520;27.448;2022-10-28T13:53:57;13.33;;;6.83;;
8574;SDS011;4325;42.520;27.448;2022-10-28T13:56:35;8.83;;;7.17;;
8574;SDS011;4325;42.520;27.448;2022-10-28T13:59:20;9.53;;;7.03;;
8574;SDS011;4325;42.520;27.448;2022-10-28T14:02:11;8.93;;;6.80;;
8574;SDS011;4325;42.520;27.448;2022-10-28T14:04:51;11.33;;;7.67;;
8574;SDS011;4325;42.520;27.448;2022-10-28T14:07:20;12.07;;;6.23;;
8574;SDS011;4325;42.520;27.448;2022-10-28T14:09:52;8.10;;;5.33;;
8574;SDS011;4325;42.520;27.448;2022-10-28T14:12:23;7.90;;;5.20;;
8574;SDS011;4325;42.520;27.448;2022-10-28T14:15:00;17.07;;;6.00;;
8574;SDS011;4325;42.520;27.448;2022-10-28T14:17:43;6.87;;;4.90;;
8574;SDS011;4325;42.520;27.448;2022-10-28T14:20:25;10.77;;;5.53;;
8574;SDS011;4325;42.520;27.448;2022-10-28T14:22:55;11.27;;;5.57;;
8574;SDS011;4325;42.520;27.448;2022-10-28T14:31:18;10.70;;;6.13;;
8574;SDS011;4325;42.520;27.448;2022-10-28T14:37:11;11.80;;;6.77;;
8574;SDS011;4325;42.520;27.448;2022-10-28T14:39:51;8.87;;;6.27;;
8574;SDS011;4325;42.520;27.448;2022-10-28T14:42:38;9.87;;;6.40;;
8574;SDS011;4325;42.520;27.448;2022-10-28T14:45:27;9.50;;;7.30;;
8574;SDS011;4325;42.520;27.448;2022-10-28T14:50:52;14.27;;;7.87;;
8574;SDS011;4325;42.520;27.448;2022-10-28T14:53:24;12.70;;;7.60;;
8574;SDS011;4325;42.520;27.448;2022-10-28T14:55:56;11.33;;;7.53;;
8574;SDS011;4325;42.520;27.448;2022-10-28T14:58:27;9.30;;;7.87;;
8574;SDS011;4325;42.520;27.448;2022-10-28T15:01:01;12.30;;;8.00;;
8574;SDS011;4325;42.520;27.448;2022-10-28T15:03:46;12.13;;;7.47;;
8574;SDS011;4325;42.520;27.448;2022-10-28T15:06:19;11.33;;;8.23;;
8574;SDS011;4325;42.520;27.448;2022-10-28T15:08:54;12.73;;;7.60;;
8574;SDS011;4325;42.520;27.448;2022-10-28T15:11:28;9.87;;;7.30;;
8574;SDS011;4325;42.520;27.448;2022-10-28T15:13:59;11.03;;;7.73;;
8574;SDS011;4325;42.520;27.448;2022-10-28T15:16:44;8.90;;;7.87;;
8574;SDS011;4325;42.520;27.448;2022-10-28T15:19:13;8.23;;;7.30;;
8574;SDS011;4325;42.520;27.448;2022-10-28T15:21:43;15.20;;;8.30;;
8574;SDS011;4325;42.520;27.448;2022-10-28T15:24:26;12.70;;;8.80;;
8574;SDS011;4325;42.520;27.448;2022-10-28T15:26:53;13.93;;;9.30;;
8574;SDS011;4325;42.520;27.448;2022-10-28T15:29:20;16.13;;;8.57;;
8574;SDS011;4325;42.520;27.448;2022-10-28T15:32:08;11.80;;;8.90;;
8574;SDS011;4325;42.520;27.448;2022-10-28T15:34:38;10.00;;;8.43;;
8574;SDS011;4325;42.520;27.448;2022-10-28T15:37:06;12.97;;;9.10;;